sensor_id;sensor_type;location;lat;lon;timestamp;pressure;altitude;pressure_sealevel;temperature;humidity
71149;BME280;59072;42.144;25.200;2022-07-23T00:01:54;100135.59;;;22.37;47.21
71149;BME280;59072;42.144;25.200;2022-07-23T00:04:19;100153.00;;;21.74;52.26
71149;BME280;59072;42.144;25.200;2022-07-23T00:06:44;100139.47;;;21.25;54.31
71149;BME280;59072;42.144;25.200;2022-07-23T00:09:10;100120.66;;;21.58;53.39
71149;BME280;59072;42.144;25.200;2022-07-23T00:11:36;100144.03;;;21.54;53.77
71149;BME280;59072;42.144;25.200;2022-07-23T00:14:01;100146.47;;;21.56;54.27
71149;BME280;59072;42.144;25.200;2022-07-23T00:16:27;100122.56;;;21.58;53.23
71149;BME280;59072;42.144;25.200;2022-07-23T00:18:52;100148.25;;;21.41;54.97
71149;BME280;59072;42.144;25.200;2022-07-23T00:21:18;100131.03;;;21.27;55.11
71149;BME280;59072;42.144;25.200;2022-07-23T00:23:43;100131.72;;;21.38;55.04
71149;BME280;59072;42.144;25.200;2022-07-23T00:26:09;100139.81;;;21.67;54.19
71149;BME280;59072;42.144;25.200;2022-07-23T00:28:34;100141.16;;;22.07;53.14
71149;BME280;59072;42.144;25.200;2022-07-23T00:31:00;100145.31;;;21.33;56.09
71149;BME280;59072;42.144;25.200;2022-07-23T00:33:25;100145.72;;;20.97;57.35
71149;BME280;59072;42.144;25.200;2022-07-23T00:35:50;100149.28;;;21.21;56.88
71149;BME280;59072;42.144;25.200;2022-07-23T00:38:16;100142.06;;;20.82;58.41
71149;BME280;59072;42.144;25.200;2022-07-23T00:40:41;100150.03;;;20.98;57.62
71149;BME280;59072;42.144;25.200;2022-07-23T00:43:07;100149.88;;;20.84;58.68
71149;BME280;59072;42.144;25.200;2022-07-23T00:45:33;100152.47;;;20.99;58.69
71149;BME280;59072;42.144;25.200;2022-07-23T00:47:59;100134.44;;;21.38;57.60
71149;BME280;59072;42.144;25.200;2022-07-23T00:50:24;100148.59;;;21.59;57.49
71149;BME280;59072;42.144;25.200;2022-07-23T00:52:50;100143.84;;;21.70;57.02
71149;BME280;59072;42.144;25.200;2022-07-23T00:55:17;100146.69;;;21.59;57.71
71149;BME280;59072;42.144;25.200;2022-07-23T00:57:42;100127.69;;;21.59;56.83
71149;BME280;59072;42.144;25.200;2022-07-23T01:00:11;100151.13;;;21.50;57.76
71149;BME280;59072;42.144;25.200;2022-07-23T01:02:37;100154.25;;;21.62;57.60
71149;BME280;59072;42.144;25.200;2022-07-23T01:05:03;100148.66;;;21.54;57.04
71149;BME280;59072;42.144;25.200;2022-07-23T01:07:29;100138.09;;;21.52;56.51
71149;BME280;59072;42.144;25.200;2022-07-23T01:09:55;100158.25;;;21.41;58.28
71149;BME280;59072;42.144;25.200;2022-07-23T01:12:21;100149.63;;;21.63;57.12
71149;BME280;59072;42.144;25.200;2022-07-23T01:14:59;100137.78;;;21.30;56.36
71149;BME280;59072;42.144;25.200;2022-07-23T01:17:26;100157.09;;;20.99;58.30
71149;BME280;59072;42.144;25.200;2022-07-23T01:19:52;100138.59;;;21.30;57.13
71149;BME280;59072;42.144;25.200;2022-07-23T01:22:18;100154.75;;;21.40;56.49
71149;BME280;59072;42.144;25.200;2022-07-23T01:24:44;100151.06;;;21.55;55.82
71149;BME280;59072;42.144;25.200;2022-07-23T01:27:10;100144.38;;;20.94;58.36
71149;BME280;59072;42.144;25.200;2022-07-23T01:29:37;100144.88;;;21.25;57.33
71149;BME280;59072;42.144;25.200;2022-07-23T01:32:03;100154.81;;;21.11;57.88
71149;BME280;59072;42.144;25.200;2022-07-23T01:34:29;100160.59;;;20.99;57.69
71149;BME280;59072;42.144;25.200;2022-07-23T01:36:54;100157.44;;;21.16;57.19
71149;BME280;59072;42.144;25.200;2022-07-23T01:39:20;100136.06;;;20.85;58.12
71149;BME280;59072;42.144;25.200;2022-07-23T01:41:45;100141.22;;;20.82;58.77
71149;BME280;59072;42.144;25.200;2022-07-23T01:44:12;100155.19;;;20.99;57.88
71149;BME280;59072;42.144;25.200;2022-07-23T01:46:38;100146.06;;;21.14;57.11
71149;BME280;59072;42.144;25.200;2022-07-23T01:49:04;100150.56;;;21.00;57.81
71149;BME280;59072;42.144;25.200;2022-07-23T01:51:29;100137.53;;;20.73;58.54
71149;BME280;59072;42.144;25.200;2022-07-23T01:53:55;100149.66;;;20.80;58.14
71149;BME280;59072;42.144;25.200;2022-07-23T01:56:20;100135.06;;;21.05;56.76
71149;BME280;59072;42.144;25.200;2022-07-23T01:58:47;100138.47;;;21.16;56.89
71149;BME280;59072;42.144;25.200;2022-07-23T02:01:13;100133.78;;;20.98;57.37
71149;BME280;59072;42.144;25.200;2022-07-23T02:03:38;100154.34;;;20.30;59.34
71149;BME280;59072;42.144;25.200;2022-07-23T02:06:04;100140.09;;;20.14;60.17
71149;BME280;59072;42.144;25.200;2022-07-23T02:08:29;100151.44;;;20.61;59.40
71149;BME280;59072;42.144;25.200;2022-07-23T02:10:54;100167.09;;;21.27;57.29
71149;BME280;59072;42.144;25.200;2022-07-23T02:13:20;100162.97;;;21.06;56.69
71149;BME280;59072;42.144;25.200;2022-07-23T02:15:46;100158.66;;;21.05;56.43
71149;BME280;59072;42.144;25.200;2022-07-23T02:18:12;100154.41;;;21.23;56.39
71149;BME280;59072;42.144;25.200;2022-07-23T02:20:37;100155.34;;;21.08;56.10
71149;BME280;59072;42.144;25.200;2022-07-23T02:23:04;100139.19;;;20.98;56.24
71149;BME280;59072;42.144;25.200;2022-07-23T02:25:29;100164.28;;;21.38;55.27
71149;BME280;59072;42.144;25.200;2022-07-23T02:27:55;100160.88;;;20.98;56.05
71149;BME280;59072;42.144;25.200;2022-07-23T02:30:20;100143.19;;;20.76;56.22
71149;BME280;59072;42.144;25.200;2022-07-23T02:32:46;100150.91;;;20.64;57.00
71149;BME280;59072;42.144;25.200;2022-07-23T02:35:11;100154.31;;;21.04;55.64
71149;BME280;59072;42.144;25.200;2022-07-23T02:37:37;100145.19;;;20.95;55.45
71149;BME280;59072;42.144;25.200;2022-07-23T02:40:03;100158.34;;;21.36;54.69
71149;BME280;59072;42.144;25.200;2022-07-23T02:42:28;100162.31;;;21.19;55.18
71149;BME280;59072;42.144;25.200;2022-07-23T02:44:54;100147.75;;;21.10;55.37
71149;BME280;59072;42.144;25.200;2022-07-23T02:47:19;100167.66;;;21.24;54.85
71149;BME280;59072;42.144;25.200;2022-07-23T02:49:45;100168.88;;;21.13;54.97
71149;BME280;59072;42.144;25.200;2022-07-23T02:52:10;100162.59;;;20.89;55.25
71149;BME280;59072;42.144;25.200;2022-07-23T02:54:36;100155.91;;;20.76;55.30
71149;BME280;59072;42.144;25.200;2022-07-23T02:57:03;100167.69;;;20.95;55.00
71149;BME280;59072;42.144;25.200;2022-07-23T02:59:29;100176.00;;;21.04;54.50
71149;BME280;59072;42.144;25.200;2022-07-23T03:01:54;100167.34;;;20.73;54.99
71149;BME280;59072;42.144;25.200;2022-07-23T03:04:20;100160.97;;;20.87;54.55
71149;BME280;59072;42.144;25.200;2022-07-23T03:06:46;100155.19;;;20.70;54.68
71149;BME280;59072;42.144;25.200;2022-07-23T03:09:11;100160.97;;;20.53;55.09
71149;BME280;59072;42.144;25.200;2022-07-23T03:11:37;100177.53;;;20.46;56.27
71149;BME280;59072;42.144;25.200;2022-07-23T03:14:02;100185.00;;;20.65;55.02
71149;BME280;59072;42.144;25.200;2022-07-23T03:16:28;100179.25;;;20.37;56.29
71149;BME280;59072;42.144;25.200;2022-07-23T03:18:53;100179.09;;;20.58;55.49
71149;BME280;59072;42.144;25.200;2022-07-23T03:21:19;100179.72;;;20.05;57.59
71149;BME280;59072;42.144;25.200;2022-07-23T03:23:44;100170.19;;;20.13;57.74
71149;BME280;59072;42.144;25.200;2022-07-23T03:26:10;100173.25;;;19.96;58.43
71149;BME280;59072;42.144;25.200;2022-07-23T03:28:35;100179.31;;;20.22;58.24
71149;BME280;59072;42.144;25.200;2022-07-23T03:31:01;100193.94;;;20.26;59.11
71149;BME280;59072;42.144;25.200;2022-07-23T03:33:26;100185.59;;;20.17;59.03
71149;BME280;59072;42.144;25.200;2022-07-23T03:35:51;100193.84;;;20.36;58.69
71149;BME280;59072;42.144;25.200;2022-07-23T03:38:17;100189.75;;;20.44;57.76
71149;BME280;59072;42.144;25.200;2022-07-23T03:40:42;100180.03;;;20.38;58.17
71149;BME280;59072;42.144;25.200;2022-07-23T03:43:08;100186.78;;;20.45;58.59
71149;BME280;59072;42.144;25.200;2022-07-23T03:45:33;100180.84;;;20.38;58.44
71149;BME280;59072;42.144;25.200;2022-07-23T03:47:59;100193.78;;;20.02;60.87
71149;BME280;59072;42.144;25.200;2022-07-23T03:50:25;100199.31;;;20.31;60.45
71149;BME280;59072;42.144;25.200;2022-07-23T03:52:51;100187.38;;;20.32;59.29
71149;BME280;59072;42.144;25.200;2022-07-23T03:55:16;100179.97;;;20.09;59.95
71149;BME280;59072;42.144;25.200;2022-07-23T03:57:42;100190.44;;;20.20;60.60
71149;BME280;59072;42.144;25.200;2022-07-23T04:00:09;100197.53;;;20.11;59.73
71149;BME280;59072;42.144;25.200;2022-07-23T04:02:36;100196.22;;;20.03;59.92
71149;BME280;59072;42.144;25.200;2022-07-23T04:05:01;100177.38;;;19.88;60.98
71149;BME280;59072;42.144;25.200;2022-07-23T04:07:27;100187.56;;;20.01;59.81
71149;BME280;59072;42.144;25.200;2022-07-23T04:09:52;100190.75;;;20.14;59.05
71149;BME280;59072;42.144;25.200;2022-07-23T04:12:18;100210.28;;;20.11;60.41
71149;BME280;59072;42.144;25.200;2022-07-23T04:14:44;100204.22;;;20.24;60.90
71149;BME280;59072;42.144;25.200;2022-07-23T04:17:09;100197.63;;;20.40;59.84
71149;BME280;59072;42.144;25.200;2022-07-23T04:19:34;100183.75;;;20.52;59.68
71149;BME280;59072;42.144;25.200;2022-07-23T04:22:05;100205.13;;;20.59;59.65
71149;BME280;59072;42.144;25.200;2022-07-23T04:24:31;100213.69;;;20.71;60.14
71149;BME280;59072;42.144;25.200;2022-07-23T04:26:56;100203.22;;;20.59;59.21
71149;BME280;59072;42.144;25.200;2022-07-23T04:29:23;100206.16;;;20.68;58.87
71149;BME280;59072;42.144;25.200;2022-07-23T04:31:48;100211.06;;;20.61;60.71
71149;BME280;59072;42.144;25.200;2022-07-23T04:34:14;100184.81;;;20.91;59.17
71149;BME280;59072;42.144;25.200;2022-07-23T04:36:39;100204.84;;;20.95;59.89
71149;BME280;59072;42.144;25.200;2022-07-23T04:39:04;100206.78;;;21.18;59.41
71149;BME280;59072;42.144;25.200;2022-07-23T04:41:30;100191.63;;;21.17;59.50
71149;BME280;59072;42.144;25.200;2022-07-23T04:43:55;100201.78;;;21.31;60.21
71149;BME280;59072;42.144;25.200;2022-07-23T04:46:21;100204.28;;;21.27;60.43
71149;BME280;59072;42.144;25.200;2022-07-23T04:48:46;100181.22;;;21.24;60.80
71149;BME280;59072;42.144;25.200;2022-07-23T04:51:12;100211.88;;;21.54;59.87
71149;BME280;59072;42.144;25.200;2022-07-23T04:53:37;100203.56;;;21.45;59.62
71149;BME280;59072;42.144;25.200;2022-07-23T04:56:04;100206.91;;;21.61;59.10
71149;BME280;59072;42.144;25.200;2022-07-23T04:58:29;100209.16;;;21.54;58.77
71149;BME280;59072;42.144;25.200;2022-07-23T05:00:57;100194.84;;;21.49;59.38
71149;BME280;59072;42.144;25.200;2022-07-23T05:03:23;100204.56;;;21.74;58.38
71149;BME280;59072;42.144;25.200;2022-07-23T05:05:49;100206.69;;;22.01;58.39
71149;BME280;59072;42.144;25.200;2022-07-23T05:08:15;100206.09;;;22.23;56.33
71149;BME280;59072;42.144;25.200;2022-07-23T05:10:40;100206.38;;;22.26;56.64
71149;BME280;59072;42.144;25.200;2022-07-23T05:13:06;100210.47;;;22.43;55.48
71149;BME280;59072;42.144;25.200;2022-07-23T05:15:31;100207.25;;;22.41;55.95
71149;BME280;59072;42.144;25.200;2022-07-23T05:17:57;100214.72;;;22.49;56.15
71149;BME280;59072;42.144;25.200;2022-07-23T05:20:22;100219.50;;;22.57;56.50
71149;BME280;59072;42.144;25.200;2022-07-23T05:22:48;100215.66;;;22.77;56.27
71149;BME280;59072;42.144;25.200;2022-07-23T05:25:13;100202.19;;;22.86;55.85
71149;BME280;59072;42.144;25.200;2022-07-23T05:27:39;100209.16;;;23.11;56.26
71149;BME280;59072;42.144;25.200;2022-07-23T05:30:04;100198.06;;;23.08;55.70
71149;BME280;59072;42.144;25.200;2022-07-23T05:32:31;100219.56;;;23.51;54.46
71149;BME280;59072;42.144;25.200;2022-07-23T05:34:57;100217.06;;;23.68;53.47
71149;BME280;59072;42.144;25.200;2022-07-23T05:37:22;100215.22;;;23.63;53.50
71149;BME280;59072;42.144;25.200;2022-07-23T05:39:48;100220.13;;;23.80;52.96
71149;BME280;59072;42.144;25.200;2022-07-23T05:42:13;100197.50;;;23.80;52.38
71149;BME280;59072;42.144;25.200;2022-07-23T05:44:39;100212.19;;;24.06;51.32
71149;BME280;59072;42.144;25.200;2022-07-23T05:47:04;100200.31;;;24.02;50.93
71149;BME280;59072;42.144;25.200;2022-07-23T05:49:30;100213.38;;;24.28;51.31
71149;BME280;59072;42.144;25.200;2022-07-23T05:51:55;100209.28;;;24.39;50.32
71149;BME280;59072;42.144;25.200;2022-07-23T05:54:21;100214.94;;;24.43;49.82
71149;BME280;59072;42.144;25.200;2022-07-23T05:56:46;100208.66;;;24.56;50.04
71149;BME280;59072;42.144;25.200;2022-07-23T05:59:12;100197.06;;;24.51;49.42
71149;BME280;59072;42.144;25.200;2022-07-23T06:01:38;100210.03;;;24.67;49.61
71149;BME280;59072;42.144;25.200;2022-07-23T06:04:04;100208.28;;;24.94;48.15
71149;BME280;59072;42.144;25.200;2022-07-23T06:06:29;100209.25;;;24.98;48.19
71149;BME280;59072;42.144;25.200;2022-07-23T06:08:54;100198.41;;;25.07;47.82
71149;BME280;59072;42.144;25.200;2022-07-23T06:11:20;100179.47;;;25.11;48.58
71149;BME280;59072;42.144;25.200;2022-07-23T06:13:45;100209.56;;;25.19;47.90
71149;BME280;59072;42.144;25.200;2022-07-23T06:16:11;100203.97;;;25.24;48.39
71149;BME280;59072;42.144;25.200;2022-07-23T06:18:36;100207.41;;;25.39;48.26
71149;BME280;59072;42.144;25.200;2022-07-23T06:21:02;100206.50;;;25.52;48.28
71149;BME280;59072;42.144;25.200;2022-07-23T06:23:27;100205.88;;;25.64;47.64
71149;BME280;59072;42.144;25.200;2022-07-23T06:25:53;100209.69;;;25.94;45.41
71149;BME280;59072;42.144;25.200;2022-07-23T06:28:18;100203.91;;;26.04;46.56
71149;BME280;59072;42.144;25.200;2022-07-23T06:30:44;100205.84;;;26.04;46.28
71149;BME280;59072;42.144;25.200;2022-07-23T06:33:09;100201.69;;;26.15;46.68
71149;BME280;59072;42.144;25.200;2022-07-23T06:35:36;100198.94;;;26.06;46.03
71149;BME280;59072;42.144;25.200;2022-07-23T06:38:02;100200.41;;;26.30;46.71
71149;BME280;59072;42.144;25.200;2022-07-23T06:40:27;100191.22;;;26.43;45.17
71149;BME280;59072;42.144;25.200;2022-07-23T06:42:53;100173.88;;;26.48;44.93
71149;BME280;59072;42.144;25.200;2022-07-23T06:45:18;100193.97;;;26.70;44.26
71149;BME280;59072;42.144;25.200;2022-07-23T06:47:44;100199.09;;;26.89;44.39
71149;BME280;59072;42.144;25.200;2022-07-23T06:50:10;100184.09;;;26.95;44.32
71149;BME280;59072;42.144;25.200;2022-07-23T06:52:35;100196.13;;;27.20;43.09
71149;BME280;59072;42.144;25.200;2022-07-23T06:55:01;100190.97;;;27.27;43.42
71149;BME280;59072;42.144;25.200;2022-07-23T06:57:26;100197.75;;;27.59;43.14
71149;BME280;59072;42.144;25.200;2022-07-23T06:59:52;100177.16;;;27.53;43.38
71149;BME280;59072;42.144;25.200;2022-07-23T07:02:18;100196.50;;;27.78;42.06
71149;BME280;59072;42.144;25.200;2022-07-23T07:04:43;100184.47;;;27.70;41.79
71149;BME280;59072;42.144;25.200;2022-07-23T07:07:09;100194.88;;;27.85;42.45
71149;BME280;59072;42.144;25.200;2022-07-23T07:09:34;100195.13;;;28.01;41.04
71149;BME280;59072;42.144;25.200;2022-07-23T07:12:00;100174.13;;;28.05;42.36
71149;BME280;59072;42.144;25.200;2022-07-23T07:14:25;100185.00;;;28.35;40.35
71149;BME280;59072;42.144;25.200;2022-07-23T07:16:51;100170.50;;;28.35;40.35
71149;BME280;59072;42.144;25.200;2022-07-23T07:19:16;100181.50;;;28.68;39.88
71149;BME280;59072;42.144;25.200;2022-07-23T07:21:42;100193.72;;;29.04;38.57
71149;BME280;59072;42.144;25.200;2022-07-23T07:24:07;100179.03;;;29.33;39.68
71149;BME280;59072;42.144;25.200;2022-07-23T07:26:33;100170.38;;;28.98;38.76
71149;BME280;59072;42.144;25.200;2022-07-23T07:28:59;100166.59;;;28.90;38.10
71149;BME280;59072;42.144;25.200;2022-07-23T07:31:25;100161.16;;;29.15;38.91
71149;BME280;59072;42.144;25.200;2022-07-23T07:33:50;100174.31;;;29.34;37.79
71149;BME280;59072;42.144;25.200;2022-07-23T07:36:15;100171.03;;;29.53;37.57
71149;BME280;59072;42.144;25.200;2022-07-23T07:38:41;100178.69;;;29.72;38.28
71149;BME280;59072;42.144;25.200;2022-07-23T07:41:07;100168.59;;;29.63;37.65
71149;BME280;59072;42.144;25.200;2022-07-23T07:43:33;100159.91;;;29.61;37.98
71149;BME280;59072;42.144;25.200;2022-07-23T07:45:58;100175.75;;;30.05;37.41
71149;BME280;59072;42.144;25.200;2022-07-23T07:48:24;100162.69;;;30.14;38.03
71149;BME280;59072;42.144;25.200;2022-07-23T07:50:49;100170.97;;;30.42;37.66
71149;BME280;59072;42.144;25.200;2022-07-23T07:53:15;100163.06;;;30.41;36.10
71149;BME280;59072;42.144;25.200;2022-07-23T07:55:40;100157.72;;;30.32;35.94
71149;BME280;59072;42.144;25.200;2022-07-23T07:58:06;100173.97;;;30.37;36.79
71149;BME280;59072;42.144;25.200;2022-07-23T08:00:31;100164.13;;;30.36;36.73
71149;BME280;59072;42.144;25.200;2022-07-23T08:02:58;100156.78;;;30.40;36.39
71149;BME280;59072;42.144;25.200;2022-07-23T08:05:28;100167.00;;;30.56;36.16
71149;BME280;59072;42.144;25.200;2022-07-23T08:07:58;100152.50;;;30.71;34.31
71149;BME280;59072;42.144;25.200;2022-07-23T08:10:25;100161.81;;;30.82;35.23
71149;BME280;59072;42.144;25.200;2022-07-23T08:12:52;100171.72;;;31.15;35.33
71149;BME280;59072;42.144;25.200;2022-07-23T08:15:22;100160.78;;;31.35;34.97
71149;BME280;59072;42.144;25.200;2022-07-23T08:17:48;100160.78;;;31.35;34.77
71149;BME280;59072;42.144;25.200;2022-07-23T08:20:17;100158.09;;;31.38;34.31
71149;BME280;59072;42.144;25.200;2022-07-23T08:25:16;100155.53;;;31.61;35.05
71149;BME280;59072;42.144;25.200;2022-07-23T08:27:44;100143.69;;;31.96;34.00
71149;BME280;59072;42.144;25.200;2022-07-23T08:30:10;100147.56;;;32.11;33.88
71149;BME280;59072;42.144;25.200;2022-07-23T08:33:06;100136.97;;;32.13;32.23
71149;BME280;59072;42.144;25.200;2022-07-23T08:35:46;100146.75;;;32.30;33.09
71149;BME280;59072;42.144;25.200;2022-07-23T08:38:15;100140.94;;;32.16;35.20
71149;BME280;59072;42.144;25.200;2022-07-23T08:40:46;100120.88;;;32.38;33.04
71149;BME280;59072;42.144;25.200;2022-07-23T08:43:15;100115.63;;;32.72;34.02
71149;BME280;59072;42.144;25.200;2022-07-23T08:45:43;100135.00;;;32.99;31.29
71149;BME280;59072;42.144;25.200;2022-07-23T08:48:17;100133.75;;;32.73;31.57
71149;BME280;59072;42.144;25.200;2022-07-23T08:50:48;100124.91;;;32.83;31.04
71149;BME280;59072;42.144;25.200;2022-07-23T08:53:15;100123.94;;;32.99;30.77
71149;BME280;59072;42.144;25.200;2022-07-23T08:55:44;100125.06;;;32.94;31.32
71149;BME280;59072;42.144;25.200;2022-07-23T08:58:11;100123.22;;;33.25;30.20
71149;BME280;59072;42.144;25.200;2022-07-23T09:00:36;100125.28;;;33.58;29.67
71149;BME280;59072;42.144;25.200;2022-07-23T09:03:02;100109.00;;;33.80;30.44
71149;BME280;59072;42.144;25.200;2022-07-23T09:05:27;100109.13;;;34.21;30.63
71149;BME280;59072;42.144;25.200;2022-07-23T09:08:27;100116.59;;;34.17;29.52
71149;BME280;59072;42.144;25.200;2022-07-23T09:11:00;100103.06;;;34.12;28.41
71149;BME280;59072;42.144;25.200;2022-07-23T09:18:44;100090.03;;;34.50;28.84
71149;BME280;59072;42.144;25.200;2022-07-23T09:21:26;100091.41;;;34.29;27.62
71149;BME280;59072;42.144;25.200;2022-07-23T09:26:36;100107.78;;;34.83;27.67
71149;BME280;59072;42.144;25.200;2022-07-23T09:29:21;100104.16;;;35.27;28.29
71149;BME280;59072;42.144;25.200;2022-07-23T09:31:58;100108.94;;;35.30;26.25
71149;BME280;59072;42.144;25.200;2022-07-23T09:36:52;100074.56;;;34.90;27.11
71149;BME280;59072;42.144;25.200;2022-07-23T09:39:25;100094.00;;;35.45;27.24
71149;BME280;59072;42.144;25.200;2022-07-23T09:41:51;100090.50;;;35.63;26.49
71149;BME280;59072;42.144;25.200;2022-07-23T09:44:19;100094.81;;;35.56;25.90
71149;BME280;59072;42.144;25.200;2022-07-23T09:46:46;100073.44;;;35.57;26.63
71149;BME280;59072;42.144;25.200;2022-07-23T09:49:21;100068.69;;;35.57;26.96
71149;BME280;59072;42.144;25.200;2022-07-23T09:51:48;100078.38;;;35.99;25.94
71149;BME280;59072;42.144;25.200;2022-07-23T09:54:28;100075.22;;;36.08;24.63
71149;BME280;59072;42.144;25.200;2022-07-23T09:56:57;100066.97;;;36.37;23.77
71149;BME280;59072;42.144;25.200;2022-07-23T09:59:26;100057.09;;;36.61;23.94
71149;BME280;59072;42.144;25.200;2022-07-23T10:01:54;100057.09;;;36.93;23.40
71149;BME280;59072;42.144;25.200;2022-07-23T10:04:23;100037.25;;;36.48;24.40
71149;BME280;59072;42.144;25.200;2022-07-23T10:06:55;100057.91;;;36.65;24.36
71149;BME280;59072;42.144;25.200;2022-07-23T10:12:00;100039.63;;;36.93;23.01
71149;BME280;59072;42.144;25.200;2022-07-23T10:14:37;100038.44;;;37.12;23.30
71149;BME280;59072;42.144;25.200;2022-07-23T10:17:03;100046.34;;;37.20;23.46
71149;BME280;59072;42.144;25.200;2022-07-23T10:19:30;100030.09;;;37.15;21.68
71149;BME280;59072;42.144;25.200;2022-07-23T10:21:59;100043.06;;;37.54;23.14
71149;BME280;59072;42.144;25.200;2022-07-23T10:27:15;100041.81;;;37.73;20.44
71149;BME280;59072;42.144;25.200;2022-07-23T10:30:00;100030.16;;;37.96;19.84
71149;BME280;59072;42.144;25.200;2022-07-23T10:35:50;100016.50;;;38.20;19.72
71149;BME280;59072;42.144;25.200;2022-07-23T10:37:52;100012.34;;;38.43;18.34
71149;BME280;59072;42.144;25.200;2022-07-23T10:40:22;100008.16;;;38.20;17.61
71149;BME280;59072;42.144;25.200;2022-07-23T10:42:50;99987.50;;;38.17;18.68
71149;BME280;59072;42.144;25.200;2022-07-23T10:48:14;100002.63;;;38.65;20.25
71149;BME280;59072;42.144;25.200;2022-07-23T10:50:41;100002.50;;;38.79;19.99
71149;BME280;59072;42.144;25.200;2022-07-23T10:53:08;100000.75;;;38.55;18.82
71149;BME280;59072;42.144;25.200;2022-07-23T10:58:03;99989.34;;;38.80;18.87
71149;BME280;59072;42.144;25.200;2022-07-23T11:00:30;99983.84;;;39.11;19.45
71149;BME280;59072;42.144;25.200;2022-07-23T11:02:58;99986.28;;;39.43;17.27
71149;BME280;59072;42.144;25.200;2022-07-23T11:05:26;99968.31;;;39.75;17.72
71149;BME280;59072;42.144;25.200;2022-07-23T11:11:16;99973.56;;;40.24;16.89
71149;BME280;59072;42.144;25.200;2022-07-23T11:13:44;99976.09;;;39.91;17.04
71149;BME280;59072;42.144;25.200;2022-07-23T11:16:19;99981.88;;;39.76;17.12
71149;BME280;59072;42.144;25.200;2022-07-23T11:32:00;99969.59;;;40.48;17.88
71149;BME280;59072;42.144;25.200;2022-07-23T11:37:02;99953.00;;;40.37;16.53
71149;BME280;59072;42.144;25.200;2022-07-23T11:39:29;99949.09;;;40.55;16.71
71149;BME280;59072;42.144;25.200;2022-07-23T11:41:55;99952.13;;;40.64;16.75
71149;BME280;59072;42.144;25.200;2022-07-23T11:44:30;99946.16;;;40.62;18.05
71149;BME280;59072;42.144;25.200;2022-07-23T11:47:07;99949.78;;;40.15;17.03
71149;BME280;59072;42.144;25.200;2022-07-23T11:49:33;99949.94;;;40.75;16.48
71149;BME280;59072;42.144;25.200;2022-07-23T11:52:11;99939.50;;;41.20;17.59
71149;BME280;59072;42.144;25.200;2022-07-23T11:54:51;99941.28;;;41.10;16.61
71149;BME280;59072;42.144;25.200;2022-07-23T11:57:17;99934.19;;;40.62;15.84
71149;BME280;59072;42.144;25.200;2022-07-23T11:59:43;99934.63;;;41.24;15.96
71149;BME280;59072;42.144;25.200;2022-07-23T12:02:09;99922.13;;;41.08;15.77
71149;BME280;59072;42.144;25.200;2022-07-23T12:07:03;99927.72;;;41.08;15.53
71149;BME280;59072;42.144;25.200;2022-07-23T12:09:29;99922.94;;;40.45;16.44
71149;BME280;59072;42.144;25.200;2022-07-23T12:11:59;99922.81;;;40.52;17.35
71149;BME280;59072;42.144;25.200;2022-07-23T12:14:24;99923.25;;;40.71;15.65
71149;BME280;59072;42.144;25.200;2022-07-23T12:17:09;99909.25;;;40.74;15.50
71149;BME280;59072;42.144;25.200;2022-07-23T12:19:35;99902.72;;;41.01;14.64
71149;BME280;59072;42.144;25.200;2022-07-23T12:22:01;99899.75;;;41.08;15.71
71149;BME280;59072;42.144;25.200;2022-07-23T12:24:26;99911.72;;;41.09;15.21
71149;BME280;59072;42.144;25.200;2022-07-23T12:27:08;99901.84;;;41.24;15.03
71149;BME280;59072;42.144;25.200;2022-07-23T12:29:35;99902.41;;;41.15;15.37
71149;BME280;59072;42.144;25.200;2022-07-23T12:32:01;99893.59;;;40.97;16.91
71149;BME280;59072;42.144;25.200;2022-07-23T12:34:27;99901.59;;;41.15;15.75
71149;BME280;59072;42.144;25.200;2022-07-23T12:36:52;99898.44;;;40.76;15.50
71149;BME280;59072;42.144;25.200;2022-07-23T12:39:31;99888.72;;;41.01;15.90
71149;BME280;59072;42.144;25.200;2022-07-23T12:41:57;99897.31;;;41.10;15.54
71149;BME280;59072;42.144;25.200;2022-07-23T12:44:22;99884.56;;;41.09;15.64
71149;BME280;59072;42.144;25.200;2022-07-23T12:46:54;99879.88;;;41.03;16.86
71149;BME280;59072;42.144;25.200;2022-07-23T12:49:27;99897.09;;;41.21;15.38
71149;BME280;59072;42.144;25.200;2022-07-23T12:51:52;99881.00;;;41.25;15.20
71149;BME280;59072;42.144;25.200;2022-07-23T12:54:27;99870.28;;;41.04;15.45
71149;BME280;59072;42.144;25.200;2022-07-23T12:56:53;99870.63;;;41.26;15.37
71149;BME280;59072;42.144;25.200;2022-07-23T12:59:19;99878.06;;;41.85;16.85
71149;BME280;59072;42.144;25.200;2022-07-23T13:01:55;99868.91;;;42.30;15.19
71149;BME280;59072;42.144;25.200;2022-07-23T13:04:24;99868.66;;;42.25;14.77
71149;BME280;59072;42.144;25.200;2022-07-23T13:06:52;99866.84;;;41.69;15.55
71149;BME280;59072;42.144;25.200;2022-07-23T13:09:23;99868.66;;;41.43;15.42
71149;BME280;59072;42.144;25.200;2022-07-23T13:11:50;99862.72;;;41.90;15.50
71149;BME280;59072;42.144;25.200;2022-07-23T13:14:17;99870.13;;;42.29;15.24
71149;BME280;59072;42.144;25.200;2022-07-23T13:16:43;99859.69;;;42.46;15.18
71149;BME280;59072;42.144;25.200;2022-07-23T13:19:09;99873.09;;;42.39;15.96
71149;BME280;59072;42.144;25.200;2022-07-23T13:21:35;99867.13;;;42.37;16.02
71149;BME280;59072;42.144;25.200;2022-07-23T13:24:00;99864.56;;;42.13;15.23
71149;BME280;59072;42.144;25.200;2022-07-23T13:26:26;99859.22;;;41.53;14.30
71149;BME280;59072;42.144;25.200;2022-07-23T13:28:52;99853.44;;;41.93;14.38
71149;BME280;59072;42.144;25.200;2022-07-23T13:31:18;99848.97;;;42.12;15.52